EST,Max TemperatureF,Mean TemperatureF,Min TemperatureF,Max Dew PointF,MeanDew PointF,Min DewpointF,Max Humidity, Mean Humidity, Min Humidity, Max Sea Level PressureIn, Mean Sea Level PressureIn, Min Sea Level PressureIn, Max VisibilityMiles, Mean VisibilityMiles, Min VisibilityMiles, Max Wind SpeedMPH, Mean Wind SpeedMPH, Max Gust SpeedMPH,PrecipitationIn, CloudCover, Events, WindDirDegrees
2012-12-1,26,16,5,23,12,0,86,82,74,30.58,30.51,30.43,10,7,1,6,0,,0.00,8,Snow,155
2012-12-2,40,33,26,38,33,23,94,90,83,30.42,30.14,29.93,10,4,0,9,4,,0.00,8,Fog-Rain,162
2012-12-3,44,39,34,42,34,30,92,87,80,30.28,30.15,29.93,10,8,0,17,3,26,0.00,8,Fog-Rain,280
2012-12-4,49,41,33,46,37,31,91,88,81,30.27,30.11,29.85,10,7,1,14,5,21,0.00,8,Rain,154
2012-12-5,49,37,25,47,29,14,90,76,58,30.15,29.97,29.81,10,8,2,18,10,30,0.00,8,Rain-Snow,290
2012-12-6,30,24,19,18,16,13,87,67,51,30.30,30.24,30.16,10,10,4,12,5,18,0.00,3,Snow,325
2012-12-7,35,27,19,29,20,16,87,69,47,30.20,30.08,30.01,10,10,10,12,3,17,0.00,4,,157
2012-12-8,37,34,30,35,31,28,92,90,87,30.02,29.91,29.81,10,6,2,7,1,,0.00,8,Rain-Snow,145
2012-12-9,40,34,27,36,25,21,91,73,60,30.30,30.18,29.92,10,10,2,14,6,21,0.00,6,,329
2012-12-10,43,36,29,41,33,24,94,89,80,30.09,29.69,29.48,10,5,0,14,3,22,0.00,8,Fog-Rain-Snow,171
2012-12-11,36,30,24,34,22,17,89,75,65,30.13,29.87,29.57,10,10,5,16,5,25,0.00,8,Rain-Snow,298
2012-12-12,33,26,19,23,19,16,89,72,54,30.36,30.27,30.14,10,10,5,7,2,,0.00,4,Snow,220
2012-12-13,35,28,22,24,21,18,89,73,49,30.42,30.34,30.22,10,10,7,6,1,,0.00,4,,183
2012-12-14,35,27,19,28,22,16,90,79,61,30.22,30.11,30.02,10,9,3,12,2,20,0.00,5,,300
2012-12-15,30,20,11,22,8,-6,82,60,23,30.34,30.29,30.18,10,10,10,13,5,17,0.00,2,,337
2012-12-16,25,18,11,22,15,5,89,80,65,30.28,30.16,30.05,10,6,1,7,2,,0.00,7,Snow,169
2012-12-17,34,30,25,31,26,22,92,86,78,30.05,29.95,29.83,10,7,1,7,4,,0.00,8,Snow,176
2012-12-18,39,36,34,34,32,28,90,82,74,29.82,29.57,29.46,10,10,5,12,5,20,0.00,8,Rain,62
2012-12-19,35,34,32,32,29,27,94,86,79,30.04,29.74,29.48,10,8,2,12,7,20,0.00,8,Snow,304
2012-12-20,33,31,29,27,26,24,84,80,70,30.20,30.09,29.93,10,10,2,8,4,,0.00,8,,248
2012-12-21,43,37,31,38,31,26,92,79,67,29.94,29.40,29.00,10,8,2,26,10,43,0.00,8,Rain-Snow,130
2012-12-22,34,26,18,29,20,10,87,76,64,29.59,29.31,29.07,10,7,0,17,9,31,0.00,8,Snow,241
2012-12-23,26,20,15,22,14,7,89,74,61,29.79,29.70,29.60,10,7,1,25,9,34,0.00,7,Snow,244
2012-12-24,25,18,12,16,12,8,87,74,62,30.03,29.96,29.79,10,8,1,12,5,18,0.00,5,Snow,262
2012-12-25,23,16,9,15,10,4,86,78,65,30.28,30.09,29.98,10,10,10,10,2,,0.00,3,,324
2012-12-26,23,12,2,15,7,-2,85,74,58,30.33,30.22,29.98,10,10,2,6,1,,0.00,1,Snow,247
2012-12-27,31,26,21,27,20,14,87,79,65,29.97,29.69,29.55,10,5,0,17,9,25,0.00,8,Snow,13
2012-12-28,24,22,19,18,16,14,85,80,76,29.99,29.89,29.69,10,8,2,15,8,23,0.00,8,Snow,316
2012-12-29,22,18,13,19,16,10,89,86,80,29.98,29.80,29.51,10,6,1,6,1,,0.00,8,Snow,296
2012-12-30,20,13,6,16,5,0,86,72,63,29.96,29.77,29.51,10,5,1,21,8,29,0.00,5,Snow,241
2012-12-31,23,16,9,21,12,2,88,80,66,29.97,29.85,29.61,10,7,2,10,4,17,0.00,8,Snow,209